createdAt,value
2019-04-21T00:01:30.688Z,68.15
2019-04-21T00:04:09.498Z,69.15
2019-04-21T00:06:48.048Z,70.45
2019-04-21T00:09:21.148Z,70.31
2019-04-21T00:11:51.363Z,69.77
2019-04-21T00:14:05.749Z,68.49
2019-04-21T00:16:32.138Z,70.77
2019-04-21T00:19:19.072Z,70.75
2019-04-21T00:21:49.242Z,71.73
2019-04-21T00:24:23.958Z,70.42
2019-04-21T00:27:34.291Z,67.07
2019-04-21T00:30:14.118Z,66.77
2019-04-21T00:32:27.923Z,66.61
2019-04-21T00:34:51.018Z,69.50
2019-04-21T00:37:25.457Z,68.47
2019-04-21T00:40:05.335Z,70.82
2019-04-21T00:42:34.335Z,71.60
2019-04-21T00:44:59.261Z,72.18
2019-04-21T00:47:34.557Z,72.31
2019-04-21T00:50:05.314Z,73.30
2019-04-21T00:55:29.851Z,72.15
2019-04-21T01:00:11.659Z,72.91
2019-04-21T01:02:46.892Z,73.48
2019-04-21T01:05:11.099Z,73.61
2019-04-21T01:07:42.422Z,73.00
2019-04-21T01:10:01.973Z,71.71
2019-04-21T01:12:37.420Z,72.10
2019-04-21T01:15:12.566Z,69.51
2019-04-21T01:17:38.297Z,69.22
2019-04-21T01:20:00.029Z,69.94
2019-04-21T01:22:12.866Z,69.91
2019-04-21T01:24:44.880Z,70.89
2019-04-21T01:27:20.677Z,73.00
2019-04-21T01:29:59.794Z,69.85
2019-04-21T01:32:29.723Z,70.21
2019-04-21T01:34:58.303Z,70.51
2019-04-21T01:37:28.854Z,71.28
2019-04-21T01:39:58.417Z,72.40
2019-04-21T01:42:21.350Z,71.72
2019-04-21T01:44:56.289Z,70.06
2019-04-21T01:47:17.449Z,71.98
2019-04-21T01:49:41.690Z,72.78
2019-04-21T01:52:25.792Z,70.63
2019-04-21T01:55:06.462Z,70.47
2019-04-21T01:57:54.081Z,70.70
2019-04-21T02:01:03.539Z,71.27
2019-04-21T02:06:14.930Z,72.37
2019-04-21T02:08:31.357Z,73.71
2019-04-21T02:11:05.182Z,73.65
2019-04-21T02:13:27.722Z,72.39
2019-04-21T02:18:27.674Z,71.47
2019-04-21T02:20:48.262Z,71.16
2019-04-21T02:23:39.515Z,71.90
2019-04-21T02:25:57.458Z,72.76
2019-04-21T02:28:36.725Z,72.52
2019-04-21T02:31:18.664Z,72.21
2019-04-21T02:33:46.537Z,72.36
2019-04-21T02:36:24.700Z,72.85
2019-04-21T02:38:40.325Z,73.18
2019-04-21T02:41:01.478Z,73.06
2019-04-21T02:43:25.609Z,73.61
2019-04-21T02:46:04.783Z,72.06
2019-04-21T02:50:53.393Z,73.76
2019-04-21T02:53:50.698Z,74.60
2019-04-21T02:59:06.861Z,75.50
2019-04-21T03:01:56.224Z,73.36
2019-04-21T03:09:53.055Z,77.13
2019-04-21T03:17:29.212Z,77.77
2019-04-21T03:22:20.769Z,79.03
2019-04-21T03:25:20.377Z,78.66
2019-04-21T03:27:35.594Z,77.68
2019-04-21T03:29:55.507Z,76.94
2019-04-21T03:35:18.447Z,77.04
2019-04-21T03:37:23.506Z,76.27
2019-04-21T03:39:45.491Z,78.20
2019-04-21T03:42:25.632Z,78.42
2019-04-21T03:44:37.376Z,79.21
2019-04-21T03:47:15.448Z,79.44
2019-04-21T03:49:48.118Z,79.80
2019-04-21T03:52:11.979Z,77.95
2019-04-21T03:55:46.837Z,78.71
2019-04-21T03:58:05.099Z,78.77
2019-04-21T04:00:24.985Z,78.45
2019-04-21T04:03:27.468Z,76.39
2019-04-21T04:06:05.435Z,77.54
2019-04-21T04:08:50.206Z,76.99
2019-04-21T04:16:10.204Z,80.38
2019-04-21T04:18:51.197Z,79.32
2019-04-21T04:23:45.240Z,79.93
2019-04-21T04:26:07.617Z,80.75
2019-04-21T04:31:06.469Z,82.18
2019-04-21T04:33:37.461Z,81.34
2019-04-21T04:36:15.598Z,82.25
2019-04-21T04:41:42.296Z,81.60
2019-04-21T04:44:04.875Z,81.88
2019-04-21T04:46:41.573Z,81.36
2019-04-21T04:48:57.320Z,81.48
2019-04-21T04:51:23.339Z,82.08
2019-04-21T04:53:48.773Z,81.35
2019-04-21T04:56:26.120Z,82.51
2019-04-21T05:03:52.674Z,79.92
2019-04-21T05:06:42.449Z,80.77
2019-04-21T05:23:48.382Z,74.62
2019-04-21T05:26:13.791Z,74.22
2019-04-21T05:28:40.902Z,73.63
2019-04-21T05:31:40.105Z,73.63
2019-04-21T05:34:10.321Z,72.85
2019-04-21T05:37:04.100Z,72.75
2019-04-21T05:39:42.352Z,70.30
2019-04-21T05:42:05.019Z,70.53
2019-04-21T05:50:12.151Z,67.09
2019-04-21T05:53:00.735Z,68.24
2019-04-21T05:58:02.537Z,66.86
2019-04-21T06:03:25.155Z,64.80
2019-04-21T06:06:00.742Z,63.03
2019-04-21T06:08:17.943Z,62.95
2019-04-21T06:16:07.315Z,61.79
2019-04-21T06:18:44.485Z,61.00
2019-04-21T06:21:05.696Z,58.35
2019-04-21T06:23:36.602Z,58.21
2019-04-21T06:26:44.798Z,58.41
2019-04-21T06:28:38.065Z,58.09
2019-04-21T06:31:17.968Z,58.34
2019-04-21T06:33:36.297Z,55.77
2019-04-21T06:39:28.319Z,55.20
2019-04-21T06:41:34.281Z,54.57
2019-04-21T06:46:34.987Z,54.10
2019-04-21T06:49:15.575Z,54.22
2019-04-21T06:51:45.510Z,54.43
2019-04-21T06:54:16.139Z,51.93
2019-04-21T06:56:46.419Z,54.83
2019-04-21T06:59:15.123Z,53.93
2019-04-21T07:01:56.602Z,53.87
2019-04-21T07:04:21.026Z,53.51
2019-04-21T07:06:45.733Z,51.92
2019-04-21T07:09:15.306Z,51.38
2019-04-21T07:11:31.565Z,52.49
2019-04-21T07:14:24.363Z,52.79
2019-04-21T07:16:38.679Z,50.70
2019-04-21T07:19:13.225Z,51.03
2019-04-21T07:21:34.218Z,50.76
2019-04-21T07:24:10.677Z,50.79
2019-04-21T07:26:32.704Z,51.02
2019-04-21T07:29:01.876Z,50.22
2019-04-21T07:31:34.807Z,48.84
2019-04-21T07:33:57.361Z,46.96
2019-04-21T07:36:35.466Z,50.22
2019-04-21T07:38:49.832Z,48.80
2019-04-21T07:41:15.931Z,49.30
2019-04-21T07:43:53.431Z,47.72
2019-04-21T07:46:22.563Z,49.19
2019-04-21T07:48:55.745Z,46.60
2019-04-21T07:51:50.679Z,48.74
2019-04-21T07:54:23.812Z,46.95
2019-04-21T07:56:34.355Z,46.62
2019-04-21T07:59:12.760Z,45.62
2019-04-21T08:06:53.664Z,46.20
2019-04-21T08:09:20.867Z,44.06
2019-04-21T08:11:44.279Z,45.75
2019-04-21T08:14:19.655Z,45.15
2019-04-21T08:16:51.204Z,45.38
2019-04-21T08:19:21.737Z,42.33
2019-04-21T08:21:49.611Z,43.44
2019-04-21T08:24:14.968Z,43.43
2019-04-21T08:26:44.952Z,42.98
2019-04-21T08:29:20.666Z,42.54
2019-04-21T08:31:48.603Z,43.05
2019-04-21T08:34:14.130Z,42.82
2019-04-21T08:36:41.386Z,41.52
2019-04-21T08:39:07.318Z,44.40
2019-04-21T08:41:42.637Z,44.17
2019-04-21T08:44:01.649Z,40.02
2019-04-21T08:46:40.622Z,43.11
2019-04-21T08:52:03.749Z,39.34
2019-04-21T08:54:15.116Z,41.04
2019-04-21T08:57:05.122Z,39.12
2019-04-21T08:59:56.859Z,36.82
2019-04-21T09:05:09.481Z,37.19
2019-04-21T09:07:55.259Z,40.64
2019-04-21T09:10:06.808Z,37.82
2019-04-21T09:12:38.251Z,36.61
2019-04-21T09:15:02.717Z,37.57
2019-04-21T09:17:26.283Z,35.91
2019-04-21T09:20:07.590Z,36.41
2019-04-21T09:22:30.766Z,34.73
2019-04-21T09:24:59.671Z,34.89
2019-04-21T09:27:29.346Z,36.85
2019-04-21T09:29:44.731Z,34.92
2019-04-21T09:32:13.577Z,34.64
2019-04-21T09:34:40.446Z,32.20
2019-04-21T09:37:20.332Z,33.42
2019-04-21T09:39:33.834Z,32.59
2019-04-21T09:42:04.418Z,32.88
2019-04-21T09:44:36.773Z,33.11
2019-04-21T09:47:03.164Z,32.63
2019-04-21T09:49:31.730Z,29.64
2019-04-21T09:51:58.135Z,31.21
2019-04-21T09:54:31.171Z,31.10
2019-04-21T09:56:59.952Z,32.05
2019-04-21T09:59:30.093Z,32.83
2019-04-21T10:02:05.190Z,29.48
2019-04-21T10:04:23.093Z,30.59
2019-04-21T10:06:51.970Z,30.96
2019-04-21T10:09:21.763Z,31.22
2019-04-21T10:11:48.930Z,27.60
2019-04-21T10:14:15.665Z,31.13
2019-04-21T10:17:03.069Z,28.00
2019-04-21T10:19:30.330Z,27.56
2019-04-21T10:22:00.444Z,29.66
2019-04-21T10:24:28.512Z,27.12
2019-04-21T10:26:56.346Z,26.25
2019-04-21T10:29:26.535Z,25.60
2019-04-21T10:31:52.520Z,26.50
2019-04-21T10:34:21.120Z,27.55
2019-04-21T10:36:49.056Z,26.44
2019-04-21T10:39:17.866Z,27.35
2019-04-21T10:41:45.804Z,26.82
2019-04-21T10:44:14.424Z,25.46
2019-04-21T10:46:42.848Z,25.34
2019-04-21T10:49:10.834Z,25.41
2019-04-21T10:51:39.374Z,25.51
2019-04-21T10:54:06.324Z,24.08
2019-04-21T10:56:38.084Z,27.17
2019-04-21T10:59:02.739Z,24.33
2019-04-21T11:01:31.367Z,26.20
2019-04-21T11:04:02.797Z,25.96
2019-04-21T11:06:30.825Z,23.81
2019-04-21T11:09:01.044Z,23.82
2019-04-21T11:11:28.077Z,22.93
2019-04-21T11:13:55.155Z,22.77
2019-04-21T11:16:23.389Z,24.42
2019-04-21T11:18:51.715Z,24.34
2019-04-21T11:21:20.868Z,20.67
2019-04-21T11:23:50.125Z,22.23
2019-04-21T11:26:18.464Z,21.26
2019-04-21T11:28:45.589Z,21.69
2019-04-21T11:31:13.318Z,21.35
2019-04-21T11:33:40.522Z,22.50
2019-04-21T11:36:08.982Z,21.64
2019-04-21T11:41:25.649Z,21.07
2019-04-21T11:43:55.014Z,21.01
2019-04-21T11:46:24.466Z,19.97
2019-04-21T11:48:52.592Z,23.52
2019-04-21T11:51:19.826Z,23.40
2019-04-21T11:53:46.934Z,22.38
2019-04-21T11:56:14.676Z,24.51
2019-04-21T11:58:43.940Z,22.72
2019-04-21T12:01:13.890Z,20.56
2019-04-21T12:03:42.010Z,22.16
2019-04-21T12:06:09.275Z,24.50
2019-04-21T12:08:42.350Z,25.33
2019-04-21T12:11:05.628Z,22.48
2019-04-21T12:13:34.047Z,24.25
2019-04-21T12:16:03.135Z,23.67
2019-04-21T12:18:32.438Z,23.52
2019-04-21T12:21:01.122Z,25.47
2019-04-21T12:23:30.076Z,25.67
2019-04-21T12:25:59.113Z,26.74
2019-04-21T12:28:28.035Z,23.69
2019-04-21T12:30:56.137Z,23.59
2019-04-21T12:33:43.634Z,24.21
2019-04-21T12:36:11.600Z,24.46
2019-04-21T12:38:46.934Z,25.36
2019-04-21T12:41:08.718Z,24.97
2019-04-21T12:43:37.359Z,28.42
2019-04-21T12:46:04.502Z,26.49
2019-04-21T12:48:31.956Z,26.94
2019-04-21T12:50:59.805Z,24.96
2019-04-21T12:53:29.597Z,23.98
2019-04-21T12:55:57.882Z,24.70
2019-04-21T12:58:26.260Z,27.95
2019-04-21T13:00:54.635Z,27.34
2019-04-21T13:03:23.909Z,26.28
2019-04-21T13:05:51.781Z,25.87
2019-04-21T13:08:21.736Z,25.34
2019-04-21T13:10:50.234Z,24.19
2019-04-21T13:13:17.709Z,27.50
2019-04-21T13:15:47.330Z,26.58
2019-04-21T13:18:16.412Z,24.96
2019-04-21T13:20:46.352Z,27.59
2019-04-21T13:23:14.851Z,25.29
2019-04-21T13:25:42.068Z,25.87
2019-04-21T13:28:10.380Z,26.43
2019-04-21T13:30:38.176Z,25.76
2019-04-21T13:33:05.335Z,26.24
2019-04-21T13:35:33.166Z,28.52
2019-04-21T13:38:02.693Z,27.31
2019-04-21T13:41:04.939Z,26.99
2019-04-21T13:43:19.375Z,27.91
2019-04-21T13:45:47.682Z,28.01
2019-04-21T13:48:16.772Z,26.58
2019-04-21T13:50:44.449Z,26.76
2019-04-21T13:53:12.391Z,24.57
2019-04-21T13:55:42.488Z,24.70
2019-04-21T13:58:10.476Z,24.79
2019-04-21T14:00:37.970Z,26.26
2019-04-21T14:03:07.089Z,25.36
2019-04-21T14:05:36.182Z,26.46
2019-04-21T14:08:05.083Z,27.24
2019-04-21T14:10:33.585Z,25.02
2019-04-21T14:13:00.572Z,24.36
2019-04-21T14:15:28.410Z,26.80
2019-04-21T14:17:56.925Z,24.79
2019-04-21T14:20:25.256Z,27.27
2019-04-21T14:22:52.062Z,27.49
2019-04-21T14:25:19.626Z,28.20
2019-04-21T14:27:50.661Z,27.30
2019-04-21T14:30:18.571Z,26.93
2019-04-21T14:32:47.631Z,26.12
2019-04-21T14:35:56.835Z,26.19
2019-04-21T14:38:24.911Z,25.18
2019-04-21T14:40:54.399Z,26.79
2019-04-21T14:43:23.766Z,25.42
2019-04-21T14:46:12.931Z,25.10
2019-04-21T14:48:59.678Z,24.19
2019-04-21T14:51:47.476Z,24.95
2019-04-21T14:54:34.488Z,24.63
2019-04-21T14:57:03.109Z,24.91
2019-04-21T14:59:31.155Z,26.78
2019-04-21T15:02:11.657Z,26.99
2019-04-21T15:04:39.759Z,27.33
2019-04-21T15:07:07.693Z,25.41
2019-04-21T15:09:37.161Z,23.91
2019-04-21T15:12:03.453Z,26.32
2019-04-21T15:14:31.773Z,27.32
2019-04-21T15:16:59.240Z,27.26
2019-04-21T15:19:26.642Z,25.78
2019-04-21T15:21:54.317Z,24.35
2019-04-21T15:24:22.432Z,24.67
2019-04-21T15:26:52.935Z,26.02
2019-04-21T15:29:20.463Z,26.59
2019-04-21T15:31:50.510Z,25.68
2019-04-21T15:34:19.243Z,25.61
2019-04-21T15:36:48.243Z,26.14
2019-04-21T15:39:16.163Z,25.76
2019-04-21T15:41:44.906Z,26.32
2019-04-21T15:44:12.888Z,23.90
2019-04-21T15:46:40.079Z,24.63
2019-04-21T15:49:07.201Z,24.48
2019-04-21T15:51:35.751Z,25.39
2019-04-21T15:54:04.873Z,24.16
2019-04-21T15:56:53.150Z,23.25
2019-04-21T15:59:40.226Z,24.33
2019-04-21T16:02:28.458Z,25.26
2019-04-21T16:04:56.747Z,23.82
2019-04-21T16:07:24.458Z,23.29
2019-04-21T16:09:54.259Z,24.44
2019-04-21T16:12:22.051Z,25.49
2019-04-21T16:14:52.392Z,25.71
2019-04-21T16:17:21.152Z,25.94
2019-04-21T16:19:49.928Z,25.76
2019-04-21T16:22:18.856Z,25.21
2019-04-21T16:24:47.757Z,25.87
2019-04-21T16:27:15.305Z,25.49
2019-04-21T16:29:43.965Z,25.41
2019-04-21T16:32:14.137Z,25.72
2019-04-21T16:34:48.946Z,26.04
2019-04-21T16:37:09.777Z,26.14
2019-04-21T16:39:38.666Z,26.02
2019-04-21T16:42:08.346Z,26.60
2019-04-21T16:44:34.813Z,27.01
2019-04-21T16:47:03.322Z,27.38
2019-04-21T16:49:31.733Z,26.83
2019-04-21T16:52:20.371Z,28.37
2019-04-21T16:54:51.892Z,29.75
2019-04-21T16:57:39.897Z,29.59
2019-04-21T17:00:58.606Z,30.04
2019-04-21T17:03:16.923Z,29.51
2019-04-21T17:05:44.051Z,27.36
2019-04-21T17:08:11.310Z,29.21
2019-04-21T17:10:40.335Z,28.99
2019-04-21T17:13:09.629Z,29.42
2019-04-21T17:15:53.090Z,30.03
2019-04-21T17:18:23.170Z,30.07
2019-04-21T17:20:45.032Z,32.69
2019-04-21T17:23:04.082Z,31.38
2019-04-21T17:25:32.083Z,30.58
2019-04-21T17:28:01.549Z,31.76
2019-04-21T17:30:28.849Z,32.47
2019-04-21T17:32:55.614Z,32.51
2019-04-21T17:35:22.860Z,33.80
2019-04-21T17:37:52.064Z,33.21
2019-04-21T17:41:13.854Z,34.98
2019-04-21T17:43:31.974Z,36.41
2019-04-21T17:46:00.654Z,35.83
2019-04-21T17:48:29.175Z,35.60
2019-04-21T17:51:17.324Z,36.25
2019-04-21T17:53:53.773Z,36.33
2019-04-21T17:56:47.485Z,37.19
2019-04-21T17:59:15.251Z,40.05
2019-04-21T18:01:39.337Z,40.58
2019-04-21T18:04:12.617Z,39.76
2019-04-21T18:06:46.709Z,41.39
2019-04-21T18:09:25.523Z,42.79
2019-04-21T18:11:46.760Z,43.00
2019-04-21T18:13:55.628Z,43.90
2019-04-21T18:16:31.621Z,45.25
2019-04-21T18:18:52.964Z,46.63
2019-04-21T18:24:22.254Z,46.75
2019-04-21T18:29:36.579Z,47.60
2019-04-21T18:32:06.218Z,49.89
2019-04-21T18:34:58.148Z,48.58
2019-04-21T18:37:47.700Z,47.54
2019-04-21T18:40:20.436Z,48.49
2019-04-21T18:46:00.687Z,49.37
2019-04-21T18:48:34.907Z,51.65
2019-04-21T18:51:11.553Z,51.40
2019-04-21T18:54:19.328Z,51.38
2019-04-21T18:56:23.177Z,51.88
2019-04-21T18:58:51.205Z,51.64
2019-04-21T19:01:24.191Z,51.68
2019-04-21T19:03:50.727Z,54.85
2019-04-21T19:06:19.404Z,55.04
2019-04-21T19:09:08.280Z,54.33
2019-04-21T19:11:28.132Z,55.88
2019-04-21T19:14:20.906Z,55.51
2019-04-21T19:16:41.620Z,57.16
2019-04-21T19:19:24.681Z,58.09
2019-04-21T19:21:28.296Z,58.34
2019-04-21T19:24:10.828Z,59.25
2019-04-21T19:26:37.799Z,56.40
2019-04-21T19:29:01.549Z,58.03
2019-04-21T19:31:32.142Z,60.18
2019-04-21T19:33:51.660Z,59.58
2019-04-21T19:36:11.273Z,57.92
2019-04-21T19:38:49.261Z,58.34
2019-04-21T19:41:25.698Z,58.71
2019-04-21T19:43:57.418Z,60.04
2019-04-21T19:46:26.418Z,59.56
2019-04-21T19:49:01.282Z,59.12
2019-04-21T19:51:19.805Z,58.42
2019-04-21T19:53:44.555Z,59.98
2019-04-21T19:56:01.250Z,59.76
2019-04-21T19:58:33.802Z,60.80
2019-04-21T20:00:59.636Z,59.55
2019-04-21T20:03:28.148Z,61.14
2019-04-21T20:06:08.161Z,61.17
2019-04-21T20:08:40.145Z,59.69
2019-04-21T20:11:14.558Z,59.31
2019-04-21T20:13:59.499Z,60.20
2019-04-21T20:16:17.279Z,63.18
2019-04-21T20:18:32.047Z,62.26
2019-04-21T20:20:52.183Z,60.53
2019-04-21T20:23:26.124Z,61.58
2019-04-21T20:25:54.710Z,60.12
2019-04-21T20:28:35.781Z,61.60
2019-04-21T20:31:06.804Z,64.22
2019-04-21T20:33:49.345Z,62.34
2019-04-21T20:36:02.015Z,60.14
2019-04-21T20:38:25.024Z,62.95
2019-04-21T20:40:50.909Z,63.86
2019-04-21T20:43:35.037Z,64.18
2019-04-21T20:48:21.064Z,64.52
2019-04-21T20:51:00.254Z,62.53
2019-04-21T20:53:27.413Z,65.12
2019-04-21T20:55:52.825Z,63.84
2019-04-21T21:01:08.722Z,63.86
2019-04-21T21:03:24.257Z,64.53
2019-04-21T21:05:45.791Z,63.40
2019-04-21T21:08:22.921Z,65.50
2019-04-21T21:10:45.342Z,64.71
2019-04-21T21:13:26.517Z,63.17
2019-04-21T21:16:01.189Z,61.00
2019-04-21T21:18:35.571Z,61.19
2019-04-21T21:20:43.126Z,59.97
2019-04-21T21:23:09.210Z,61.20
2019-04-21T21:25:45.172Z,61.59
2019-04-21T21:28:04.375Z,59.64
2019-04-21T21:30:34.706Z,59.37
2019-04-21T21:33:12.670Z,59.74
2019-04-21T21:35:37.111Z,56.88
2019-04-21T21:38:08.187Z,58.49
2019-04-21T21:40:38.266Z,59.83
2019-04-21T21:42:48.143Z,58.61
2019-04-21T21:45:19.862Z,59.05
2019-04-21T21:48:00.706Z,57.39
2019-04-21T21:51:05.871Z,57.68
2019-04-21T21:53:45.656Z,59.86
2019-04-21T21:56:14.497Z,57.10
2019-04-21T21:58:44.263Z,57.53
2019-04-21T22:01:53.139Z,57.81
2019-04-21T22:04:26.348Z,58.03
2019-04-21T22:06:58.247Z,60.34
2019-04-21T22:09:18.700Z,62.04
2019-04-21T22:11:49.576Z,60.24
2019-04-21T22:14:22.955Z,58.22
2019-04-21T22:16:57.788Z,59.48
2019-04-21T22:19:29.770Z,61.22
2019-04-21T22:22:00.998Z,62.86
2019-04-21T22:24:26.937Z,62.44
2019-04-21T22:26:39.385Z,61.93
2019-04-21T22:29:07.642Z,58.54
2019-04-21T22:31:38.899Z,61.09
2019-04-21T22:34:07.574Z,62.27
2019-04-21T22:36:44.725Z,64.68
2019-04-21T22:39:20.795Z,63.22
2019-04-21T22:41:36.309Z,61.75
2019-04-21T22:44:01.007Z,62.71
2019-04-21T22:46:28.662Z,62.79
2019-04-21T22:48:59.532Z,61.57
2019-04-21T22:51:35.382Z,63.41
2019-04-21T22:53:55.851Z,61.53
2019-04-21T22:56:26.822Z,61.95
2019-04-21T22:58:51.342Z,60.29
2019-04-21T23:01:26.719Z,62.75
2019-04-21T23:03:54.699Z,63.39
2019-04-21T23:06:22.067Z,64.92
2019-04-21T23:08:48.082Z,63.23
2019-04-21T23:11:16.650Z,60.35
2019-04-21T23:13:51.808Z,62.09
2019-04-21T23:16:21.448Z,62.89
2019-04-21T23:19:38.849Z,63.11
2019-04-21T23:22:10.246Z,61.94
2019-04-21T23:24:45.540Z,61.26
2019-04-21T23:27:04.800Z,61.03
2019-04-21T23:29:48.228Z,63.22
2019-04-21T23:32:06.688Z,64.19
2019-04-21T23:34:25.244Z,63.24
2019-04-21T23:36:54.480Z,62.87
2019-04-21T23:39:23.312Z,64.29
2019-04-21T23:42:31.831Z,66.34
2019-04-21T23:44:58.072Z,64.73
2019-04-21T23:47:35.595Z,66.68
2019-04-21T23:50:01.407Z,66.18
2019-04-21T23:52:23.623Z,67.93
2019-04-21T23:54:51.616Z,67.74
2019-04-21T23:57:28.512Z,68.98
2019-04-21T23:59:55.390Z,69.87
